sensor_id;sensor_type;location;lat;lon;timestamp;P1;durP1;ratioP1;P2;durP2;ratioP2
76053;SDS011;64752;48.870;9.082;2023-04-01T00:01:48;2.35;;;0.80;;
76053;SDS011;64752;48.870;9.082;2023-04-01T00:04:13;2.40;;;0.90;;
76053;SDS011;64752;48.870;9.082;2023-04-01T00:06:38;2.03;;;0.80;;
76053;SDS011;64752;48.870;9.082;2023-04-01T00:09:03;4.00;;;0.65;;
76053;SDS011;64752;48.870;9.082;2023-04-01T00:11:29;2.45;;;0.85;;
76053;SDS011;64752;48.870;9.082;2023-04-01T00:13:55;2.28;;;0.65;;
76053;SDS011;64752;48.870;9.082;2023-04-01T00:16:20;4.28;;;0.90;;
76053;SDS011;64752;48.870;9.082;2023-04-01T00:18:46;2.10;;;0.60;;
76053;SDS011;64752;48.870;9.082;2023-04-01T00:21:12;2.88;;;0.70;;
76053;SDS011;64752;48.870;9.082;2023-04-01T00:23:37;3.70;;;0.80;;
76053;SDS011;64752;48.870;9.082;2023-04-01T00:26:02;1.40;;;0.55;;
76053;SDS011;64752;48.870;9.082;2023-04-01T00:28:28;3.15;;;0.80;;
76053;SDS011;64752;48.870;9.082;2023-04-01T00:30:53;4.82;;;0.70;;
76053;SDS011;64752;48.870;9.082;2023-04-01T00:33:18;1.67;;;0.63;;
76053;SDS011;64752;48.870;9.082;2023-04-01T00:35:45;1.63;;;0.60;;
76053;SDS011;64752;48.870;9.082;2023-04-01T00:38:10;3.88;;;0.68;;
76053;SDS011;64752;48.870;9.082;2023-04-01T00:40:40;3.30;;;0.73;;
76053;SDS011;64752;48.870;9.082;2023-04-01T00:43:16;4.13;;;0.88;;
76053;SDS011;64752;48.870;9.082;2023-04-01T00:45:43;4.20;;;1.08;;
76053;SDS011;64752;48.870;9.082;2023-04-01T00:48:26;3.97;;;0.93;;
76053;SDS011;64752;48.870;9.082;2023-04-01T00:51:01;4.60;;;0.95;;
76053;SDS011;64752;48.870;9.082;2023-04-01T00:53:27;2.35;;;0.90;;
76053;SDS011;64752;48.870;9.082;2023-04-01T00:56:12;2.50;;;0.77;;
76053;SDS011;64752;48.870;9.082;2023-04-01T00:58:40;3.20;;;0.90;;
76053;SDS011;64752;48.870;9.082;2023-04-01T01:01:06;4.50;;;0.82;;
76053;SDS011;64752;48.870;9.082;2023-04-01T01:11:05;1.05;;;0.50;;
76053;SDS011;64752;48.870;9.082;2023-04-01T01:13:38;5.00;;;0.90;;
76053;SDS011;64752;48.870;9.082;2023-04-01T01:18:49;4.28;;;0.77;;
76053;SDS011;64752;48.870;9.082;2023-04-01T01:21:36;2.88;;;1.08;;
76053;SDS011;64752;48.870;9.082;2023-04-01T01:26:51;3.33;;;0.95;;
76053;SDS011;64752;48.870;9.082;2023-04-01T01:29:34;4.97;;;0.80;;
76053;SDS011;64752;48.870;9.082;2023-04-01T01:32:04;3.97;;;1.10;;
76053;SDS011;64752;48.870;9.082;2023-04-01T01:34:32;6.78;;;1.02;;
76053;SDS011;64752;48.870;9.082;2023-04-01T01:37:01;2.38;;;0.63;;
76053;SDS011;64752;48.870;9.082;2023-04-01T01:39:30;3.42;;;0.80;;
76053;SDS011;64752;48.870;9.082;2023-04-01T01:41:56;5.38;;;1.00;;
76053;SDS011;64752;48.870;9.082;2023-04-01T01:44:22;5.10;;;1.17;;
76053;SDS011;64752;48.870;9.082;2023-04-01T01:46:48;6.00;;;0.75;;
76053;SDS011;64752;48.870;9.082;2023-04-01T01:49:15;3.83;;;0.80;;
76053;SDS011;64752;48.870;9.082;2023-04-01T01:51:41;2.65;;;0.70;;
76053;SDS011;64752;48.870;9.082;2023-04-01T01:54:11;2.75;;;0.63;;
76053;SDS011;64752;48.870;9.082;2023-04-01T01:56:36;3.88;;;1.17;;
76053;SDS011;64752;48.870;9.082;2023-04-01T01:59:03;3.87;;;0.80;;
76053;SDS011;64752;48.870;9.082;2023-04-01T02:01:31;3.85;;;0.90;;
76053;SDS011;64752;48.870;9.082;2023-04-01T02:03:57;2.25;;;0.43;;
76053;SDS011;64752;48.870;9.082;2023-04-01T02:06:23;3.40;;;0.97;;
76053;SDS011;64752;48.870;9.082;2023-04-01T02:11:18;2.55;;;0.60;;
76053;SDS011;64752;48.870;9.082;2023-04-01T02:16:13;4.35;;;0.95;;
76053;SDS011;64752;48.870;9.082;2023-04-01T02:18:40;2.03;;;0.38;;
76053;SDS011;64752;48.870;9.082;2023-04-01T02:21:06;1.73;;;0.60;;
76053;SDS011;64752;48.870;9.082;2023-04-01T02:23:32;3.65;;;0.85;;
76053;SDS011;64752;48.870;9.082;2023-04-01T02:25:58;4.05;;;0.60;;
76053;SDS011;64752;48.870;9.082;2023-04-01T02:28:24;3.60;;;0.70;;
76053;SDS011;64752;48.870;9.082;2023-04-01T02:30:50;3.33;;;0.60;;
76053;SDS011;64752;48.870;9.082;2023-04-01T02:33:16;3.20;;;0.70;;
76053;SDS011;64752;48.870;9.082;2023-04-01T02:35:41;2.20;;;0.73;;
76053;SDS011;64752;48.870;9.082;2023-04-01T02:38:07;2.90;;;0.70;;
76053;SDS011;64752;48.870;9.082;2023-04-01T02:40:42;2.63;;;0.60;;
76053;SDS011;64752;48.870;9.082;2023-04-01T02:43:07;3.92;;;0.95;;
76053;SDS011;64752;48.870;9.082;2023-04-01T02:45:33;4.35;;;0.80;;
76053;SDS011;64752;48.870;9.082;2023-04-01T02:47:58;1.33;;;0.32;;
76053;SDS011;64752;48.870;9.082;2023-04-01T02:50:23;2.70;;;0.63;;
76053;SDS011;64752;48.870;9.082;2023-04-01T02:52:48;2.70;;;0.63;;
76053;SDS011;64752;48.870;9.082;2023-04-01T02:55:13;1.60;;;0.30;;
76053;SDS011;64752;48.870;9.082;2023-04-01T02:57:39;1.00;;;0.35;;
76053;SDS011;64752;48.870;9.082;2023-04-01T03:00:04;1.58;;;0.50;;
76053;SDS011;64752;48.870;9.082;2023-04-01T03:02:35;1.25;;;0.40;;
76053;SDS011;64752;48.870;9.082;2023-04-01T03:05:01;3.53;;;1.00;;
76053;SDS011;64752;48.870;9.082;2023-04-01T03:07:26;2.30;;;0.60;;
76053;SDS011;64752;48.870;9.082;2023-04-01T03:09:51;3.90;;;0.47;;
76053;SDS011;64752;48.870;9.082;2023-04-01T03:12:17;1.77;;;0.33;;
76053;SDS011;64752;48.870;9.082;2023-04-01T03:14:42;2.03;;;0.30;;
76053;SDS011;64752;48.870;9.082;2023-04-01T03:17:07;2.13;;;0.50;;
76053;SDS011;64752;48.870;9.082;2023-04-01T03:19:32;0.50;;;0.28;;
76053;SDS011;64752;48.870;9.082;2023-04-01T03:21:57;1.97;;;0.50;;
76053;SDS011;64752;48.870;9.082;2023-04-01T03:24:23;2.30;;;0.75;;
76053;SDS011;64752;48.870;9.082;2023-04-01T03:26:48;1.00;;;0.50;;
76053;SDS011;64752;48.870;9.082;2023-04-01T03:29:13;3.33;;;0.60;;
76053;SDS011;64752;48.870;9.082;2023-04-01T03:34:05;3.13;;;0.80;;
76053;SDS011;64752;48.870;9.082;2023-04-01T03:36:30;3.47;;;0.50;;
76053;SDS011;64752;48.870;9.082;2023-04-01T03:38:56;2.53;;;0.50;;
76053;SDS011;64752;48.870;9.082;2023-04-01T03:41:21;0.87;;;0.30;;
76053;SDS011;64752;48.870;9.082;2023-04-01T03:43:46;3.95;;;0.57;;
76053;SDS011;64752;48.870;9.082;2023-04-01T03:46:12;3.03;;;0.40;;
76053;SDS011;64752;48.870;9.082;2023-04-01T03:48:41;3.90;;;0.45;;
76053;SDS011;64752;48.870;9.082;2023-04-01T03:51:07;1.13;;;0.40;;
76053;SDS011;64752;48.870;9.082;2023-04-01T03:53:32;1.45;;;0.40;;
76053;SDS011;64752;48.870;9.082;2023-04-01T03:55:57;2.30;;;0.60;;
76053;SDS011;64752;48.870;9.082;2023-04-01T03:58:23;2.63;;;0.40;;
76053;SDS011;64752;48.870;9.082;2023-04-01T04:00:48;2.73;;;0.50;;
76053;SDS011;64752;48.870;9.082;2023-04-01T04:03:13;3.50;;;0.83;;
76053;SDS011;64752;48.870;9.082;2023-04-01T04:05:45;1.70;;;0.43;;
76053;SDS011;64752;48.870;9.082;2023-04-01T04:08:10;1.50;;;0.30;;
76053;SDS011;64752;48.870;9.082;2023-04-01T04:10:36;1.67;;;0.50;;
76053;SDS011;64752;48.870;9.082;2023-04-01T04:13:01;1.50;;;0.30;;
76053;SDS011;64752;48.870;9.082;2023-04-01T04:15:26;1.92;;;0.60;;
76053;SDS011;64752;48.870;9.082;2023-04-01T04:17:51;1.80;;;0.40;;
76053;SDS011;64752;48.870;9.082;2023-04-01T04:20:16;2.08;;;0.50;;
76053;SDS011;64752;48.870;9.082;2023-04-01T04:22:42;1.98;;;0.52;;
76053;SDS011;64752;48.870;9.082;2023-04-01T04:25:07;2.33;;;0.57;;
76053;SDS011;64752;48.870;9.082;2023-04-01T04:27:33;1.77;;;0.30;;
76053;SDS011;64752;48.870;9.082;2023-04-01T04:30:01;3.35;;;0.60;;
76053;SDS011;64752;48.870;9.082;2023-04-01T04:32:26;3.70;;;0.85;;
76053;SDS011;64752;48.870;9.082;2023-04-01T04:34:52;2.40;;;0.70;;
76053;SDS011;64752;48.870;9.082;2023-04-01T04:37:17;4.15;;;0.57;;
76053;SDS011;64752;48.870;9.082;2023-04-01T04:39:42;2.45;;;0.73;;
76053;SDS011;64752;48.870;9.082;2023-04-01T04:42:08;3.13;;;0.75;;
76053;SDS011;64752;48.870;9.082;2023-04-01T04:44:33;2.50;;;0.45;;
76053;SDS011;64752;48.870;9.082;2023-04-01T04:46:58;1.20;;;0.50;;
76053;SDS011;64752;48.870;9.082;2023-04-01T04:49:23;2.35;;;0.63;;
76053;SDS011;64752;48.870;9.082;2023-04-01T04:51:48;4.75;;;0.98;;
76053;SDS011;64752;48.870;9.082;2023-04-01T04:54:14;2.55;;;0.77;;
76053;SDS011;64752;48.870;9.082;2023-04-01T04:56:39;3.22;;;0.63;;
76053;SDS011;64752;48.870;9.082;2023-04-01T04:59:05;2.15;;;0.57;;
76053;SDS011;64752;48.870;9.082;2023-04-01T05:01:31;2.47;;;0.73;;
76053;SDS011;64752;48.870;9.082;2023-04-01T05:03:58;2.05;;;0.52;;
76053;SDS011;64752;48.870;9.082;2023-04-01T05:06:23;5.23;;;0.67;;
76053;SDS011;64752;48.870;9.082;2023-04-01T05:11:16;1.63;;;0.50;;
76053;SDS011;64752;48.870;9.082;2023-04-01T05:13:42;4.00;;;0.60;;
76053;SDS011;64752;48.870;9.082;2023-04-01T05:16:08;2.40;;;0.60;;
76053;SDS011;64752;48.870;9.082;2023-04-01T05:18:34;3.55;;;0.80;;
76053;SDS011;64752;48.870;9.082;2023-04-01T05:20:59;0.40;;;0.30;;
76053;SDS011;64752;48.870;9.082;2023-04-01T05:23:24;2.45;;;0.65;;
76053;SDS011;64752;48.870;9.082;2023-04-01T05:25:50;4.97;;;0.93;;
76053;SDS011;64752;48.870;9.082;2023-04-01T05:28:18;2.63;;;0.88;;
76053;SDS011;64752;48.870;9.082;2023-04-01T05:30:43;3.08;;;0.77;;
76053;SDS011;64752;48.870;9.082;2023-04-01T05:33:11;2.40;;;0.70;;
76053;SDS011;64752;48.870;9.082;2023-04-01T05:35:37;4.43;;;0.80;;
76053;SDS011;64752;48.870;9.082;2023-04-01T05:38:03;8.52;;;1.27;;
76053;SDS011;64752;48.870;9.082;2023-04-01T05:40:28;2.95;;;0.55;;
76053;SDS011;64752;48.870;9.082;2023-04-01T05:42:54;4.28;;;1.00;;
76053;SDS011;64752;48.870;9.082;2023-04-01T05:45:19;3.78;;;0.75;;
76053;SDS011;64752;48.870;9.082;2023-04-01T05:47:44;1.45;;;0.65;;
76053;SDS011;64752;48.870;9.082;2023-04-01T05:50:10;2.83;;;0.70;;
76053;SDS011;64752;48.870;9.082;2023-04-01T05:52:35;4.40;;;0.80;;
76053;SDS011;64752;48.870;9.082;2023-04-01T05:55:01;3.95;;;0.70;;
76053;SDS011;64752;48.870;9.082;2023-04-01T05:57:26;1.88;;;0.70;;
76053;SDS011;64752;48.870;9.082;2023-04-01T05:59:51;6.13;;;0.88;;
76053;SDS011;64752;48.870;9.082;2023-04-01T06:02:17;2.83;;;0.68;;
76053;SDS011;64752;48.870;9.082;2023-04-01T06:04:42;2.92;;;0.70;;
76053;SDS011;64752;48.870;9.082;2023-04-01T06:07:11;3.03;;;0.60;;
76053;SDS011;64752;48.870;9.082;2023-04-01T06:09:36;2.80;;;0.80;;
76053;SDS011;64752;48.870;9.082;2023-04-01T06:30:05;2.47;;;0.50;;
76053;SDS011;64752;48.870;9.082;2023-04-01T06:32:39;0.82;;;0.43;;
76053;SDS011;64752;48.870;9.082;2023-04-01T06:43:09;2.35;;;0.43;;
76053;SDS011;64752;48.870;9.082;2023-04-01T06:45:41;1.70;;;0.60;;
76053;SDS011;64752;48.870;9.082;2023-04-01T06:48:13;1.08;;;0.65;;
76053;SDS011;64752;48.870;9.082;2023-04-01T06:53:17;3.65;;;0.60;;
76053;SDS011;64752;48.870;9.082;2023-04-01T06:55:47;2.38;;;0.50;;
76053;SDS011;64752;48.870;9.082;2023-04-01T06:58:27;2.92;;;0.70;;
76053;SDS011;64752;48.870;9.082;2023-04-01T07:00:56;2.42;;;0.70;;
76053;SDS011;64752;48.870;9.082;2023-04-01T07:06:10;1.92;;;0.50;;
76053;SDS011;64752;48.870;9.082;2023-04-01T07:08:38;1.08;;;0.35;;
76053;SDS011;64752;48.870;9.082;2023-04-01T07:11:09;1.50;;;0.43;;
76053;SDS011;64752;48.870;9.082;2023-04-01T07:13:41;3.30;;;0.75;;
76053;SDS011;64752;48.870;9.082;2023-04-01T07:18:39;1.40;;;0.40;;
76053;SDS011;64752;48.870;9.082;2023-04-01T07:21:08;1.35;;;0.40;;
76053;SDS011;64752;48.870;9.082;2023-04-01T07:23:39;1.38;;;0.43;;
76053;SDS011;64752;48.870;9.082;2023-04-01T07:26:22;1.15;;;0.60;;
76053;SDS011;64752;48.870;9.082;2023-04-01T07:28:48;3.22;;;0.90;;
76053;SDS011;64752;48.870;9.082;2023-04-01T07:33:44;2.05;;;0.60;;
76053;SDS011;64752;48.870;9.082;2023-04-01T07:36:46;1.15;;;0.75;;
76053;SDS011;64752;48.870;9.082;2023-04-01T07:39:06;1.33;;;0.50;;
76053;SDS011;64752;48.870;9.082;2023-04-01T07:49:21;0.38;;;0.35;;
76053;SDS011;64752;48.870;9.082;2023-04-01T07:51:55;1.48;;;0.40;;
76053;SDS011;64752;48.870;9.082;2023-04-01T07:54:29;2.15;;;0.93;;
76053;SDS011;64752;48.870;9.082;2023-04-01T08:04:45;1.17;;;0.57;;
76053;SDS011;64752;48.870;9.082;2023-04-01T08:07:17;1.00;;;0.50;;
76053;SDS011;64752;48.870;9.082;2023-04-01T08:10:01;1.20;;;0.40;;
76053;SDS011;64752;48.870;9.082;2023-04-01T08:23:06;3.00;;;0.57;;
76053;SDS011;64752;48.870;9.082;2023-04-01T08:25:33;2.25;;;0.70;;
76053;SDS011;64752;48.870;9.082;2023-04-01T08:33:40;2.05;;;0.65;;
76053;SDS011;64752;48.870;9.082;2023-04-01T08:38:54;5.18;;;0.60;;
76053;SDS011;64752;48.870;9.082;2023-04-01T08:43:55;2.17;;;0.60;;
76053;SDS011;64752;48.870;9.082;2023-04-01T09:04:13;1.23;;;0.60;;
76053;SDS011;64752;48.870;9.082;2023-04-01T09:07:04;3.63;;;0.60;;
76053;SDS011;64752;48.870;9.082;2023-04-01T09:12:15;1.88;;;0.47;;
76053;SDS011;64752;48.870;9.082;2023-04-01T09:25:08;0.70;;;0.32;;
76053;SDS011;64752;48.870;9.082;2023-04-01T09:27:44;2.00;;;0.30;;
76053;SDS011;64752;48.870;9.082;2023-04-01T09:53:36;0.88;;;0.22;;
76053;SDS011;64752;48.870;9.082;2023-04-01T10:10:58;0.17;;;0.17;;
76053;SDS011;64752;48.870;9.082;2023-04-01T10:15:59;0.35;;;0.20;;
76053;SDS011;64752;48.870;9.082;2023-04-01T10:18:35;1.25;;;0.20;;
76053;SDS011;64752;48.870;9.082;2023-04-01T10:41:44;0.32;;;0.30;;
76053;SDS011;64752;48.870;9.082;2023-04-01T10:47:11;0.30;;;0.20;;
76053;SDS011;64752;48.870;9.082;2023-04-01T10:54:47;0.63;;;0.30;;
76053;SDS011;64752;48.870;9.082;2023-04-01T11:39:13;0.10;;;0.10;;
76053;SDS011;64752;48.870;9.082;2023-04-01T11:41:47;0.57;;;0.20;;
76053;SDS011;64752;48.870;9.082;2023-04-01T11:46:47;0.10;;;0.10;;
76053;SDS011;64752;48.870;9.082;2023-04-01T11:49:28;0.20;;;0.13;;
76053;SDS011;64752;48.870;9.082;2023-04-01T11:54:42;0.00;;;0.00;;
76053;SDS011;64752;48.870;9.082;2023-04-01T12:10:20;0.30;;;0.20;;
76053;SDS011;64752;48.870;9.082;2023-04-01T12:18:16;0.95;;;0.60;;
76053;SDS011;64752;48.870;9.082;2023-04-01T12:20:49;0.50;;;0.50;;
76053;SDS011;64752;48.870;9.082;2023-04-01T12:49:27;0.10;;;0.10;;
76053;SDS011;64752;48.870;9.082;2023-04-01T12:52:02;0.20;;;0.10;;
76053;SDS011;64752;48.870;9.082;2023-04-01T13:00:00;0.43;;;0.20;;
76053;SDS011;64752;48.870;9.082;2023-04-01T13:02:36;0.00;;;0.00;;
76053;SDS011;64752;48.870;9.082;2023-04-01T13:08:03;0.20;;;0.10;;
76053;SDS011;64752;48.870;9.082;2023-04-01T13:21:04;0.30;;;0.10;;
76053;SDS011;64752;48.870;9.082;2023-04-01T13:24:08;0.15;;;0.10;;
76053;SDS011;64752;48.870;9.082;2023-04-01T13:44:16;1.75;;;0.38;;
76053;SDS011;64752;48.870;9.082;2023-04-01T13:54:32;0.15;;;0.15;;
76053;SDS011;64752;48.870;9.082;2023-04-01T13:59:58;0.10;;;0.10;;
76053;SDS011;64752;48.870;9.082;2023-04-01T14:13:00;2.20;;;0.22;;
76053;SDS011;64752;48.870;9.082;2023-04-01T14:50:06;0.20;;;0.10;;
76053;SDS011;64752;48.870;9.082;2023-04-01T14:52:34;0.10;;;0.10;;
76053;SDS011;64752;48.870;9.082;2023-04-01T14:55:01;0.30;;;0.20;;
76053;SDS011;64752;48.870;9.082;2023-04-01T14:57:29;0.65;;;0.20;;
76053;SDS011;64752;48.870;9.082;2023-04-01T15:00:01;0.43;;;0.23;;
76053;SDS011;64752;48.870;9.082;2023-04-01T15:07:52;0.20;;;0.20;;
76053;SDS011;64752;48.870;9.082;2023-04-01T15:13:10;1.73;;;0.30;;
76053;SDS011;64752;48.870;9.082;2023-04-01T15:26:46;0.45;;;0.45;;
76053;SDS011;64752;48.870;9.082;2023-04-01T15:36:53;0.20;;;0.20;;
76053;SDS011;64752;48.870;9.082;2023-04-01T15:44:53;0.70;;;0.40;;
76053;SDS011;64752;48.870;9.082;2023-04-01T15:49:50;0.20;;;0.10;;
76053;SDS011;64752;48.870;9.082;2023-04-01T15:52:34;0.45;;;0.40;;
76053;SDS011;64752;48.870;9.082;2023-04-01T16:08:58;0.40;;;0.30;;
76053;SDS011;64752;48.870;9.082;2023-04-01T16:18:11;0.50;;;0.32;;
76053;SDS011;64752;48.870;9.082;2023-04-01T16:25:55;0.80;;;0.35;;
76053;SDS011;64752;48.870;9.082;2023-04-01T16:28:31;0.90;;;0.40;;
76053;SDS011;64752;48.870;9.082;2023-04-01T16:30:59;0.55;;;0.32;;
76053;SDS011;64752;48.870;9.082;2023-04-01T16:41:34;0.93;;;0.70;;
76053;SDS011;64752;48.870;9.082;2023-04-01T16:46:39;1.25;;;0.60;;
76053;SDS011;64752;48.870;9.082;2023-04-01T16:51:46;1.23;;;0.80;;
76053;SDS011;64752;48.870;9.082;2023-04-01T17:02:21;2.15;;;1.00;;
76053;SDS011;64752;48.870;9.082;2023-04-01T17:04:45;2.20;;;0.70;;
76053;SDS011;64752;48.870;9.082;2023-04-01T17:12:42;1.77;;;0.57;;
76053;SDS011;64752;48.870;9.082;2023-04-01T17:18:05;1.67;;;0.50;;
76053;SDS011;64752;48.870;9.082;2023-04-01T17:20:41;1.23;;;0.63;;
76053;SDS011;64752;48.870;9.082;2023-04-01T17:35:58;2.50;;;0.70;;
76053;SDS011;64752;48.870;9.082;2023-04-01T17:59:55;2.75;;;1.25;;
76053;SDS011;64752;48.870;9.082;2023-04-01T18:02:27;2.65;;;1.10;;
76053;SDS011;64752;48.870;9.082;2023-04-01T18:05:04;1.83;;;0.88;;
76053;SDS011;64752;48.870;9.082;2023-04-01T18:13:07;1.20;;;0.70;;
76053;SDS011;64752;48.870;9.082;2023-04-01T18:15:44;2.05;;;1.40;;
76053;SDS011;64752;48.870;9.082;2023-04-01T18:18:26;2.55;;;1.00;;
76053;SDS011;64752;48.870;9.082;2023-04-01T18:21:18;4.10;;;0.70;;
76053;SDS011;64752;48.870;9.082;2023-04-01T18:23:47;2.05;;;0.90;;
76053;SDS011;64752;48.870;9.082;2023-04-01T18:26:20;4.20;;;0.80;;
76053;SDS011;64752;48.870;9.082;2023-04-01T18:28:56;2.00;;;0.90;;
76053;SDS011;64752;48.870;9.082;2023-04-01T18:31:32;2.15;;;0.80;;
76053;SDS011;64752;48.870;9.082;2023-04-01T18:36:44;2.38;;;0.75;;
76053;SDS011;64752;48.870;9.082;2023-04-01T18:47:30;3.05;;;1.00;;
76053;SDS011;64752;48.870;9.082;2023-04-01T18:50:47;1.40;;;0.80;;
76053;SDS011;64752;48.870;9.082;2023-04-01T18:57:51;3.78;;;1.27;;
76053;SDS011;64752;48.870;9.082;2023-04-01T19:01:03;1.30;;;0.90;;
76053;SDS011;64752;48.870;9.082;2023-04-01T19:05:40;4.60;;;1.67;;
76053;SDS011;64752;48.870;9.082;2023-04-01T19:13:17;3.43;;;1.40;;
76053;SDS011;64752;48.870;9.082;2023-04-01T19:16:03;3.35;;;1.15;;
76053;SDS011;64752;48.870;9.082;2023-04-01T19:21:01;2.45;;;1.13;;
76053;SDS011;64752;48.870;9.082;2023-04-01T19:26:00;3.78;;;1.10;;
76053;SDS011;64752;48.870;9.082;2023-04-01T19:28:43;4.07;;;1.40;;
76053;SDS011;64752;48.870;9.082;2023-04-01T19:36:30;2.08;;;0.60;;
76053;SDS011;64752;48.870;9.082;2023-04-01T19:47:18;2.53;;;1.33;;
76053;SDS011;64752;48.870;9.082;2023-04-01T19:52:37;2.97;;;1.30;;
76053;SDS011;64752;48.870;9.082;2023-04-01T19:55:24;4.03;;;1.50;;
76053;SDS011;64752;48.870;9.082;2023-04-01T20:00:23;5.72;;;1.60;;
76053;SDS011;64752;48.870;9.082;2023-04-01T20:07:41;6.07;;;1.50;;
76053;SDS011;64752;48.870;9.082;2023-04-01T20:10:20;4.53;;;1.67;;
76053;SDS011;64752;48.870;9.082;2023-04-01T20:18:01;1.88;;;0.82;;
76053;SDS011;64752;48.870;9.082;2023-04-01T20:20:28;3.25;;;0.95;;
76053;SDS011;64752;48.870;9.082;2023-04-01T20:25:26;2.25;;;1.00;;
76053;SDS011;64752;48.870;9.082;2023-04-01T20:27:57;1.92;;;0.80;;
76053;SDS011;64752;48.870;9.082;2023-04-01T20:30:42;3.08;;;1.13;;
76053;SDS011;64752;48.870;9.082;2023-04-01T20:33:20;2.53;;;0.90;;
76053;SDS011;64752;48.870;9.082;2023-04-01T20:40:38;1.97;;;0.90;;
76053;SDS011;64752;48.870;9.082;2023-04-01T20:45:58;2.80;;;1.35;;
76053;SDS011;64752;48.870;9.082;2023-04-01T20:48:31;3.55;;;1.30;;
76053;SDS011;64752;48.870;9.082;2023-04-01T20:51:06;2.15;;;0.90;;
76053;SDS011;64752;48.870;9.082;2023-04-01T21:14:27;3.53;;;0.87;;
76053;SDS011;64752;48.870;9.082;2023-04-01T21:29:28;2.75;;;0.70;;
76053;SDS011;64752;48.870;9.082;2023-04-01T21:32:41;0.60;;;0.47;;
76053;SDS011;64752;48.870;9.082;2023-04-01T22:06:41;1.77;;;0.63;;
76053;SDS011;64752;48.870;9.082;2023-04-01T22:22:01;1.23;;;0.70;;
76053;SDS011;64752;48.870;9.082;2023-04-01T22:25:15;2.22;;;0.80;;
76053;SDS011;64752;48.870;9.082;2023-04-01T22:32:15;0.75;;;0.75;;
76053;SDS011;64752;48.870;9.082;2023-04-01T22:34:49;2.05;;;0.77;;
76053;SDS011;64752;48.870;9.082;2023-04-01T22:37:21;1.02;;;0.60;;
76053;SDS011;64752;48.870;9.082;2023-04-01T22:45:29;1.30;;;0.70;;
76053;SDS011;64752;48.870;9.082;2023-04-01T22:47:55;2.38;;;0.80;;
76053;SDS011;64752;48.870;9.082;2023-04-01T22:50:29;1.50;;;0.75;;
76053;SDS011;64752;48.870;9.082;2023-04-01T22:52:59;2.13;;;0.85;;
76053;SDS011;64752;48.870;9.082;2023-04-01T22:55:28;1.75;;;0.70;;
76053;SDS011;64752;48.870;9.082;2023-04-01T22:57:59;1.23;;;0.77;;
76053;SDS011;64752;48.870;9.082;2023-04-01T23:00:30;3.08;;;0.73;;
76053;SDS011;64752;48.870;9.082;2023-04-01T23:06:00;3.88;;;0.98;;
76053;SDS011;64752;48.870;9.082;2023-04-01T23:10:58;2.42;;;0.60;;
76053;SDS011;64752;48.870;9.082;2023-04-01T23:13:29;1.30;;;0.75;;
76053;SDS011;64752;48.870;9.082;2023-04-01T23:15:55;1.85;;;0.85;;
76053;SDS011;64752;48.870;9.082;2023-04-01T23:18:25;0.88;;;0.60;;
76053;SDS011;64752;48.870;9.082;2023-04-01T23:20:56;0.90;;;0.60;;
76053;SDS011;64752;48.870;9.082;2023-04-01T23:23:26;1.00;;;0.68;;
76053;SDS011;64752;48.870;9.082;2023-04-01T23:30:58;1.02;;;0.60;;
76053;SDS011;64752;48.870;9.082;2023-04-01T23:35:52;1.25;;;0.63;;
76053;SDS011;64752;48.870;9.082;2023-04-01T23:38:18;0.47;;;0.35;;
76053;SDS011;64752;48.870;9.082;2023-04-01T23:40:44;0.80;;;0.38;;
76053;SDS011;64752;48.870;9.082;2023-04-01T23:43:13;0.70;;;0.40;;
76053;SDS011;64752;48.870;9.082;2023-04-01T23:45:38;1.00;;;0.63;;
76053;SDS011;64752;48.870;9.082;2023-04-01T23:48:05;0.75;;;0.40;;
76053;SDS011;64752;48.870;9.082;2023-04-01T23:50:31;1.20;;;0.50;;
76053;SDS011;64752;48.870;9.082;2023-04-01T23:53:02;0.55;;;0.47;;
76053;SDS011;64752;48.870;9.082;2023-04-01T23:55:30;1.25;;;0.52;;
